createdAt,value
2023-04-08T00:01:42.256Z,32.60
2023-04-08T00:05:03.969Z,33.00
2023-04-08T00:08:25.663Z,34.10
2023-04-08T00:11:48.325Z,29.50
2023-04-08T00:15:10.673Z,28.23
2023-04-08T00:18:32.207Z,29.60
2023-04-08T00:21:54.019Z,29.13
2023-04-08T00:25:16.058Z,27.90
2023-04-08T00:28:39.592Z,29.53
2023-04-08T00:32:00.915Z,29.23
2023-04-08T00:35:22.352Z,38.47
2023-04-08T00:38:43.799Z,29.20
2023-04-08T00:42:05.722Z,26.73
2023-04-08T00:45:28.435Z,29.13
2023-04-08T00:48:50.103Z,28.87
2023-04-08T00:52:11.738Z,30.17
2023-04-08T00:55:33.459Z,26.17
2023-04-08T00:58:55.598Z,31.10
2023-04-08T01:02:26.162Z,25.17
2023-04-08T01:05:57.624Z,41.40
2023-04-08T01:09:22.644Z,28.70
2023-04-08T01:12:51.478Z,30.03
2023-04-08T01:16:17.178Z,29.67
2023-04-08T01:19:44.737Z,30.07
2023-04-08T01:23:14.368Z,30.63
2023-04-08T01:26:38.430Z,28.27
2023-04-08T01:30:02.210Z,29.87
2023-04-08T01:33:28.894Z,28.97
2023-04-08T01:36:52.027Z,28.03
2023-04-08T01:40:14.586Z,29.83
2023-04-08T01:43:39.589Z,31.30
2023-04-08T01:47:02.181Z,32.07
2023-04-08T01:50:24.963Z,30.93
2023-04-08T01:53:46.658Z,31.03
2023-04-08T01:57:12.861Z,32.00
2023-04-08T02:00:37.725Z,27.80
2023-04-08T02:04:00.520Z,30.50
2023-04-08T02:07:22.926Z,31.63
2023-04-08T02:10:44.552Z,31.40
2023-04-08T02:14:06.454Z,31.03
2023-04-08T02:17:36.189Z,29.50
2023-04-08T02:21:03.219Z,28.10
2023-04-08T02:24:25.319Z,29.63
2023-04-08T02:27:48.873Z,29.20
2023-04-08T02:31:13.712Z,30.43
2023-04-08T02:34:41.428Z,27.30
2023-04-08T02:38:03.340Z,26.73
2023-04-08T02:41:24.858Z,27.83
2023-04-08T02:44:46.256Z,28.93
2023-04-08T02:48:08.075Z,26.40
2023-04-08T02:51:30.620Z,28.77
2023-04-08T02:54:51.805Z,29.57
2023-04-08T02:58:13.091Z,24.53
2023-04-08T03:01:34.575Z,28.47
2023-04-08T03:04:56.100Z,28.60
2023-04-08T03:08:19.320Z,27.47
2023-04-08T03:11:40.602Z,29.80
2023-04-08T03:15:03.429Z,29.43
2023-04-08T03:18:25.545Z,29.77
2023-04-08T03:21:47.283Z,30.50
2023-04-08T03:25:11.890Z,27.70
2023-04-08T03:28:33.373Z,29.57
2023-04-08T03:31:55.157Z,27.83
2023-04-08T03:35:17.641Z,26.73
2023-04-08T03:38:38.917Z,27.00
2023-04-08T03:42:03.065Z,27.17
2023-04-08T03:45:24.953Z,29.87
2023-04-08T03:48:46.135Z,28.83
2023-04-08T03:52:07.583Z,33.00
2023-04-08T03:55:29.134Z,31.40
2023-04-08T03:58:52.001Z,30.80
2023-04-08T04:02:13.955Z,32.27
2023-04-08T04:05:35.631Z,31.50
2023-04-08T04:08:57.016Z,30.20
2023-04-08T04:12:18.510Z,32.13
2023-04-08T04:15:41.765Z,31.13
2023-04-08T04:19:03.182Z,35.57
2023-04-08T04:22:24.778Z,34.60
2023-04-08T04:25:46.200Z,39.47
2023-04-08T04:29:07.492Z,34.80
2023-04-08T04:32:30.072Z,35.37
2023-04-08T04:35:52.041Z,40.63
2023-04-08T04:39:13.493Z,38.47
2023-04-08T04:42:34.796Z,37.40
2023-04-08T04:45:57.035Z,39.93
2023-04-08T04:49:20.032Z,35.97
2023-04-08T04:52:41.512Z,41.13
2023-04-08T04:56:03.645Z,41.23
2023-04-08T04:59:25.437Z,38.33
2023-04-08T05:02:47.455Z,37.67
2023-04-08T05:06:11.793Z,39.10
2023-04-08T05:09:33.418Z,43.03
2023-04-08T05:12:54.657Z,47.80
2023-04-08T05:16:16.609Z,43.90
2023-04-08T05:19:38.157Z,46.03
2023-04-08T05:23:00.737Z,47.33
2023-04-08T05:26:22.876Z,44.40
2023-04-08T05:29:44.488Z,47.90
2023-04-08T05:33:05.942Z,44.63
2023-04-08T05:36:27.442Z,47.87
2023-04-08T05:39:50.683Z,50.87
2023-04-08T05:43:12.305Z,46.83
2023-04-08T05:46:34.078Z,52.17
2023-04-08T05:49:55.683Z,55.97
2023-04-08T05:53:17.000Z,46.87
2023-04-08T05:56:40.609Z,48.47
2023-04-08T06:00:02.456Z,46.37
2023-04-08T06:03:28.056Z,47.10
2023-04-08T06:06:50.076Z,51.70
2023-04-08T06:10:11.867Z,53.70
2023-04-08T06:13:34.830Z,48.77
2023-04-08T06:16:57.341Z,53.03
2023-04-08T06:20:18.835Z,50.30
2023-04-08T06:23:40.474Z,50.00
2023-04-08T06:27:01.844Z,48.93
2023-04-08T06:30:25.411Z,55.47
2023-04-08T06:33:46.951Z,55.03
2023-04-08T06:37:08.828Z,49.93
2023-04-08T06:40:30.717Z,49.00
2023-04-08T06:43:52.203Z,54.13
2023-04-08T06:47:17.008Z,50.90
2023-04-08T06:50:38.226Z,55.37
2023-04-08T06:54:00.028Z,58.03
2023-04-08T06:57:21.754Z,57.87
2023-04-08T07:00:43.779Z,60.10
2023-04-08T07:04:06.435Z,55.50
2023-04-08T07:07:28.339Z,54.80
2023-04-08T07:10:49.828Z,53.73
2023-04-08T07:14:11.744Z,52.07
2023-04-08T07:17:34.025Z,55.43
2023-04-08T07:20:57.925Z,57.40
2023-04-08T07:24:19.176Z,53.33
2023-04-08T07:27:40.550Z,50.40
2023-04-08T07:31:11.672Z,50.30
2023-04-08T07:34:33.366Z,50.73
2023-04-08T07:37:57.769Z,51.87
2023-04-08T07:41:18.904Z,50.80
2023-04-08T07:44:39.994Z,49.93
2023-04-08T07:48:01.966Z,53.83
2023-04-08T07:51:23.565Z,45.77
2023-04-08T07:54:46.684Z,50.07
2023-04-08T07:58:07.995Z,50.03
2023-04-08T08:01:31.262Z,52.63
2023-04-08T08:04:53.107Z,50.13
2023-04-08T08:08:14.783Z,48.57
2023-04-08T08:11:37.545Z,58.07
2023-04-08T08:14:59.607Z,52.83
2023-04-08T08:18:21.076Z,50.77
2023-04-08T08:21:42.334Z,54.70
2023-04-08T08:25:04.585Z,54.80
2023-04-08T08:28:27.430Z,52.20
2023-04-08T08:31:49.243Z,50.33
2023-04-08T08:35:10.946Z,51.73
2023-04-08T08:38:32.704Z,52.73
2023-04-08T08:41:54.275Z,53.53
2023-04-08T08:45:17.803Z,52.90
2023-04-08T08:48:40.738Z,52.20
2023-04-08T08:52:02.511Z,54.67
2023-04-08T08:58:49.226Z,54.47
2023-04-08T09:02:25.419Z,52.80
2023-04-08T09:05:54.103Z,58.33
2023-04-08T09:09:16.052Z,55.77
2023-04-08T09:12:55.412Z,52.73
2023-04-08T09:16:18.890Z,51.30
2023-04-08T09:20:02.071Z,51.63
2023-04-08T09:27:42.430Z,47.23
2023-04-08T09:31:19.838Z,51.27
2023-04-08T09:34:43.013Z,53.37
2023-04-08T09:38:04.470Z,48.50
2023-04-08T09:41:29.882Z,49.57
2023-04-08T09:44:51.808Z,49.30
2023-04-08T09:48:18.512Z,49.20
2023-04-08T09:51:49.863Z,56.37
2023-04-08T09:55:13.593Z,54.23
2023-04-08T09:58:42.861Z,60.73
2023-04-08T10:02:08.881Z,56.10
2023-04-08T10:05:32.215Z,56.40
2023-04-08T10:08:55.374Z,52.73
2023-04-08T10:12:16.556Z,59.10
2023-04-08T10:15:40.893Z,52.80
2023-04-08T10:19:02.691Z,54.13
2023-04-08T10:22:49.921Z,52.60
2023-04-08T10:26:33.570Z,55.27
2023-04-08T10:29:55.014Z,53.40
2023-04-08T10:33:18.318Z,55.03
2023-04-08T10:36:40.069Z,54.23
2023-04-08T10:40:01.794Z,53.73
2023-04-08T10:43:24.456Z,52.63
2023-04-08T10:46:46.811Z,44.27
2023-04-08T10:50:14.856Z,45.07
2023-04-08T10:53:37.775Z,49.27
2023-04-08T10:56:59.935Z,45.47
2023-04-08T11:00:35.698Z,43.50
2023-04-08T11:03:57.595Z,38.83
2023-04-08T11:07:21.713Z,38.70
2023-04-08T11:10:45.075Z,37.43
2023-04-08T11:14:07.398Z,37.40
2023-04-08T11:17:31.564Z,33.80
2023-04-08T11:20:53.845Z,31.43
2023-04-08T11:24:16.483Z,37.10
2023-04-08T11:27:39.567Z,42.77
2023-04-08T11:31:01.274Z,43.55
2023-04-08T11:34:26.270Z,38.97
2023-04-08T11:37:49.839Z,35.73
2023-04-08T11:41:12.528Z,31.33
2023-04-08T11:44:34.546Z,36.15
2023-04-08T11:47:56.179Z,36.90
2023-04-08T11:51:18.976Z,37.50
2023-04-08T11:54:43.277Z,34.90
2023-04-08T11:58:07.591Z,38.00
2023-04-08T12:01:29.291Z,35.60
2023-04-08T12:04:51.132Z,33.22
2023-04-08T12:08:14.173Z,33.70
2023-04-08T12:11:35.940Z,31.00
2023-04-08T12:14:57.653Z,26.63
2023-04-08T12:18:19.159Z,29.92
2023-04-08T12:21:40.836Z,31.15
2023-04-08T12:25:04.250Z,26.70
2023-04-08T12:28:25.849Z,23.75
2023-04-08T12:31:47.277Z,19.98
2023-04-08T12:35:10.092Z,21.50
2023-04-08T12:38:31.557Z,21.40
2023-04-08T12:41:54.486Z,23.80
2023-04-08T12:45:16.241Z,23.13
2023-04-08T12:48:37.998Z,23.27
2023-04-08T12:52:00.010Z,21.00
2023-04-08T12:55:24.914Z,23.75
2023-04-08T12:58:47.737Z,19.02
2023-04-08T13:02:09.293Z,21.67
2023-04-08T13:05:42.876Z,19.88
2023-04-08T13:09:05.413Z,23.00
2023-04-08T13:12:27.217Z,21.42
2023-04-08T13:15:50.867Z,18.83
2023-04-08T13:19:12.711Z,20.67
2023-04-08T13:22:34.563Z,20.20
2023-04-08T13:25:56.226Z,19.73
2023-04-08T13:29:17.519Z,21.65
2023-04-08T13:32:40.750Z,22.73
2023-04-08T13:36:02.393Z,22.50
2023-04-08T13:39:23.620Z,22.45
2023-04-08T13:42:45.747Z,19.45
2023-04-08T13:46:08.105Z,18.50
2023-04-08T13:49:31.569Z,20.50
2023-04-08T13:52:53.153Z,20.20
2023-04-08T13:56:14.416Z,21.27
2023-04-08T13:59:36.032Z,22.55
2023-04-08T14:02:57.749Z,25.05
2023-04-08T14:06:20.536Z,24.95
2023-04-08T14:09:41.843Z,26.83
2023-04-08T14:13:03.628Z,29.92
2023-04-08T14:16:25.037Z,22.83
2023-04-08T14:19:46.807Z,21.13
2023-04-08T14:23:09.660Z,21.83
2023-04-08T14:26:33.180Z,21.23
2023-04-08T14:29:54.889Z,29.20
2023-04-08T14:33:16.298Z,27.50
2023-04-08T14:36:38.541Z,26.70
2023-04-08T14:40:01.143Z,23.45
2023-04-08T14:43:22.538Z,27.90
2023-04-08T14:46:43.909Z,27.15
2023-04-08T14:50:06.609Z,28.25
2023-04-08T14:53:28.126Z,27.55
2023-04-08T14:56:51.394Z,30.33
2023-04-08T15:00:14.301Z,29.00
2023-04-08T15:03:36.115Z,32.25
2023-04-08T15:06:57.831Z,35.80
2023-04-08T15:10:19.683Z,34.40
2023-04-08T15:13:43.153Z,31.98
2023-04-08T15:17:04.904Z,30.85
2023-04-08T15:20:26.497Z,30.88
2023-04-08T15:23:47.824Z,28.58
2023-04-08T15:27:09.405Z,26.25
2023-04-08T15:30:35.396Z,26.40
2023-04-08T15:33:58.508Z,26.92
2023-04-08T15:37:20.347Z,26.75
2023-04-08T15:40:43.378Z,21.95
2023-04-08T15:44:04.656Z,37.53
2023-04-08T15:47:27.532Z,31.00
2023-04-08T15:50:50.458Z,26.65
2023-04-08T15:54:12.291Z,27.80
2023-04-08T15:57:36.022Z,27.30
2023-04-08T16:00:57.777Z,28.10
2023-04-08T16:04:20.537Z,30.10
2023-04-08T16:07:43.109Z,30.10
2023-04-08T16:11:08.055Z,28.23
2023-04-08T16:14:30.767Z,33.72
2023-04-08T16:17:53.558Z,30.50
2023-04-08T16:21:17.245Z,29.08
2023-04-08T16:24:38.876Z,33.42
2023-04-08T16:28:00.494Z,30.75
2023-04-08T16:31:22.306Z,30.10
2023-04-08T16:34:43.734Z,31.42
2023-04-08T16:38:06.537Z,31.02
2023-04-08T16:41:28.133Z,30.17
2023-04-08T16:44:49.921Z,29.75
2023-04-08T16:48:12.639Z,28.83
2023-04-08T16:51:34.381Z,29.00
2023-04-08T16:54:57.687Z,31.10
2023-04-08T16:58:19.793Z,29.55
2023-04-08T17:01:41.702Z,29.48
2023-04-08T17:05:03.383Z,33.10
2023-04-08T17:08:25.968Z,30.98
2023-04-08T17:11:48.576Z,30.50
2023-04-08T17:15:11.452Z,29.95
2023-04-08T17:18:33.255Z,29.42
2023-04-08T17:21:55.039Z,29.65
2023-04-08T17:25:16.586Z,29.00
2023-04-08T17:28:39.872Z,25.25
2023-04-08T17:32:01.679Z,30.80
2023-04-08T17:35:23.030Z,28.35
2023-04-08T17:38:44.311Z,28.33
2023-04-08T17:42:05.960Z,31.35
2023-04-08T17:45:28.917Z,29.95
2023-04-08T17:48:50.355Z,26.38
2023-04-08T17:52:12.113Z,30.42
2023-04-08T17:55:33.454Z,33.33
2023-04-08T17:58:54.753Z,31.33
2023-04-08T18:02:17.923Z,29.73
2023-04-08T18:05:39.173Z,27.65
2023-04-08T18:09:00.908Z,28.85
2023-04-08T18:12:22.793Z,28.08
2023-04-08T18:15:44.411Z,32.40
2023-04-08T18:19:07.114Z,32.75
2023-04-08T18:22:28.894Z,32.58
2023-04-08T18:25:50.858Z,30.55
2023-04-08T18:29:12.463Z,36.42
2023-04-08T18:32:34.410Z,31.55
2023-04-08T18:35:59.552Z,31.35
2023-04-08T18:39:22.602Z,32.60
2023-04-08T18:42:44.111Z,31.52
2023-04-08T18:46:05.787Z,33.33
2023-04-08T18:49:30.224Z,32.30
2023-04-08T18:52:54.054Z,31.92
2023-04-08T18:56:16.081Z,36.55
2023-04-08T18:59:37.770Z,31.75
2023-04-08T19:02:59.427Z,29.08
2023-04-08T19:06:22.564Z,33.92
2023-04-08T19:09:45.589Z,30.77
2023-04-08T19:13:06.864Z,32.30
2023-04-08T19:16:28.413Z,31.98
2023-04-08T19:19:49.957Z,34.58
2023-04-08T19:23:11.190Z,28.80
2023-04-08T19:26:34.715Z,37.47
2023-04-08T19:29:56.251Z,35.25
2023-04-08T19:33:17.457Z,29.38
2023-04-08T19:36:38.862Z,32.70
2023-04-08T19:40:00.601Z,29.42
2023-04-08T19:43:23.572Z,34.28
2023-04-08T19:46:45.037Z,35.70
2023-04-08T19:50:08.439Z,34.50
2023-04-08T19:53:30.636Z,30.08
2023-04-08T19:56:52.088Z,33.25
2023-04-08T20:00:15.551Z,34.30
2023-04-08T20:03:37.367Z,33.60
2023-04-08T20:06:58.731Z,32.08
2023-04-08T20:10:20.619Z,28.98
2023-04-08T20:13:42.373Z,31.95
2023-04-08T20:17:05.917Z,35.40
2023-04-08T20:20:29.912Z,34.17
2023-04-08T20:23:52.035Z,34.70
2023-04-08T20:27:13.408Z,40.03
2023-04-08T20:30:34.820Z,36.67
2023-04-08T20:33:58.125Z,36.87
2023-04-08T20:37:19.632Z,33.80
2023-04-08T20:40:43.904Z,36.75
2023-04-08T20:44:08.557Z,34.67
2023-04-08T20:47:30.193Z,38.83
2023-04-08T20:50:52.831Z,38.13
2023-04-08T20:54:14.547Z,36.37
2023-04-08T20:57:35.857Z,36.73
2023-04-08T21:00:58.993Z,34.57
2023-04-08T21:04:20.940Z,37.03
2023-04-08T21:07:44.728Z,39.03
2023-04-08T21:11:06.642Z,37.60
2023-04-08T21:14:30.967Z,35.67
2023-04-08T21:17:52.803Z,38.00
2023-04-08T21:21:14.033Z,42.90
2023-04-08T21:24:36.697Z,34.93
2023-04-08T21:27:58.457Z,32.73
2023-04-08T21:31:20.178Z,36.30
2023-04-08T21:34:41.920Z,35.10
2023-04-08T21:38:03.782Z,36.17
2023-04-08T21:41:28.422Z,36.43
2023-04-08T21:44:52.108Z,30.90
2023-04-08T21:48:14.280Z,38.67
2023-04-08T21:51:35.879Z,32.57
2023-04-08T21:54:57.772Z,33.90
2023-04-08T21:58:20.871Z,31.57
2023-04-08T22:01:42.556Z,39.17
2023-04-08T22:05:04.280Z,34.77
2023-04-08T22:08:26.192Z,38.87
2023-04-08T22:11:47.794Z,35.20
2023-04-08T22:15:11.696Z,36.43
2023-04-08T22:18:32.956Z,33.80
2023-04-08T22:21:54.693Z,32.00
2023-04-08T22:25:16.163Z,37.33
2023-04-08T22:28:37.662Z,35.53
2023-04-08T22:32:00.382Z,39.37
2023-04-08T22:35:21.683Z,38.07
2023-04-08T22:38:43.526Z,36.90
2023-04-08T22:42:05.411Z,48.90
2023-04-08T22:45:27.087Z,51.33
2023-04-08T22:48:50.361Z,45.77
2023-04-08T22:52:12.352Z,48.13
2023-04-08T22:55:34.238Z,38.70
2023-04-08T22:58:56.028Z,42.37
2023-04-08T23:02:17.669Z,39.83
2023-04-08T23:05:40.933Z,36.63
2023-04-08T23:09:02.799Z,44.43
2023-04-08T23:12:24.580Z,39.87
2023-04-08T23:15:46.521Z,40.67
2023-04-08T23:19:07.756Z,36.90
2023-04-08T23:22:30.920Z,38.13
2023-04-08T23:25:55.570Z,37.90
2023-04-08T23:29:17.817Z,36.37
2023-04-08T23:32:39.254Z,40.43
2023-04-08T23:36:00.652Z,39.00
2023-04-08T23:39:24.493Z,37.50
2023-04-08T23:42:46.201Z,34.37
2023-04-08T23:46:07.852Z,38.93
2023-04-08T23:49:29.899Z,35.73
2023-04-08T23:52:51.227Z,35.00
2023-04-08T23:56:13.870Z,35.87
2023-04-08T23:59:35.289Z,37.80
